Time;durP1;ratioP1;P1;durP2;ratioP2;P2;SDS_P1;SDS_P2;PMS_P1;PMS_P2;Temp;Humidity;BMP_temperature;BMP_pressure;BME280_temperature;BME280_humidity;BME280_pressure;Samples;Min_cycle;Max_cycle;Signal;HPM_P1;HPM_P2
2022/08/11 00:00:33;;;;;;;;;;;17.80;55.60;;;;;;5113495;28;19923;-81
2022/08/11 00:03:02;;;;;;;;;;;17.50;56.10;;;;;;5092931;28;19934;-81
2022/08/11 00:05:29;;;;;;;;;;;17.40;56.60;;;;;;5112881;28;19922;-82
2022/08/11 00:07:56;;;;;;;;;;;17.20;57.00;;;;;;5113044;28;19915;-82
2022/08/11 00:10:23;;;;;;;;;;;17.10;57.20;;;;;;5112692;28;20039;-82
2022/08/11 00:12:51;;;;;;;;;;;16.90;57.80;;;;;;5112043;28;19919;-82
2022/08/11 00:15:17;;;;;;;;;;;17.00;59.10;;;;;;5113406;28;19915;-81
2022/08/11 00:17:43;;;;;;;;;;;17.00;58.20;;;;;;5112456;28;19908;-81
2022/08/11 00:20:11;;;;;;;;;;;16.90;59.00;;;;;;5113117;28;19908;-81
2022/08/11 00:22:40;;;;;;;;;;;16.80;59.30;;;;;;5111835;28;19911;-82
2022/08/11 00:25:08;;;;;;;;;;;17.00;59.80;;;;;;5094000;28;20057;-82
2022/08/11 00:27:35;;;;;;;;;;;17.00;59.80;;;;;;5111687;28;20391;-82
2022/08/11 00:30:03;;;;;;;;;;;17.10;59.80;;;;;;5112980;28;19912;-81
2022/08/11 00:32:29;;;;;;;;;;;17.20;60.10;;;;;;5087371;28;19912;-82
2022/08/11 00:34:56;;;;;;;;;;;17.20;59.50;;;;;;5111314;28;20340;-82
2022/08/11 00:37:22;;;;;;;;;;;17.20;59.80;;;;;;5112881;28;19923;-84
2022/08/11 00:39:50;;;;;;;;;;;17.20;60.10;;;;;;5112225;28;19916;-83
2022/08/11 00:42:15;;;;;;;;;;;17.20;59.40;;;;;;5112862;28;19907;-80
2022/08/11 00:44:41;;;;;;;;;;;17.30;59.90;;;;;;5110403;28;20206;-80
2022/08/11 00:47:16;;;;;;;;;;;17.30;60.20;;;;;;5113149;28;19923;-80
2022/08/11 00:49:50;;;;;;;;;;;17.30;59.70;;;;;;5125430;28;20467;-80
2022/08/11 00:52:16;;;;;;;;;;;17.40;59.50;;;;;;5112896;28;19912;-82
2022/08/11 00:54:57;;;;;;;;;;;17.40;58.60;;;;;;5110672;28;19915;-82
2022/08/11 00:57:23;;;;;;;;;;;17.50;58.70;;;;;;5106917;28;19919;-83
2022/08/11 01:00:08;;;;;;;;;;;17.50;58.70;;;;;;5112245;28;20315;-82
2022/08/11 01:02:46;;;;;;;;;;;17.40;58.50;;;;;;5111333;28;20266;-82
2022/08/11 01:05:47;;;;;;;;;;;17.40;59.10;;;;;;5112816;28;19916;-82
2022/08/11 01:08:31;;;;;;;;;;;17.30;59.60;;;;;;5018566;28;20417;-82
2022/08/11 01:10:57;;;;;;;;;;;17.30;59.60;;;;;;5104937;28;19918;-82
2022/08/11 01:13:29;;;;;;;;;;;17.30;60.30;;;;;;5110232;28;19998;-82
2022/08/11 01:16:11;;;;;;;;;;;17.20;60.90;;;;;;5112713;28;20265;-82
2022/08/11 01:18:53;;;;;;;;;;;17.20;61.10;;;;;;5112291;28;20413;-83
2022/08/11 01:21:34;;;;;;;;;;;17.20;61.50;;;;;;5107136;28;19912;-82
2022/08/11 01:24:18;;;;;;;;;;;17.20;61.40;;;;;;5092741;28;19923;-82
2022/08/11 01:27:03;;;;;;;;;;;17.10;61.70;;;;;;5112831;28;19915;-82
2022/08/11 01:29:32;;;;;;;;;;;17.10;61.70;;;;;;5095327;28;19912;-83
2022/08/11 01:32:01;;;;;;;;;;;17.10;62.50;;;;;;5108047;28;19919;-82
2022/08/11 01:35:00;;;;;;;;;;;16.90;62.30;;;;;;5113808;28;19912;-83
2022/08/11 01:37:29;;;;;;;;;;;16.90;62.40;;;;;;5134210;28;19907;-83
2022/08/11 01:40:14;;;;;;;;;;;16.90;63.30;;;;;;5136854;28;19904;-82
2022/08/11 01:45:24;;;;;;;;;;;16.80;64.00;;;;;;5094773;28;20353;-83
2022/08/11 01:48:13;;;;;;;;;;;16.80;64.60;;;;;;5103972;28;19912;-81
2022/08/11 01:50:39;;;;;;;;;;;16.80;64.20;;;;;;5116709;28;20288;-82
2022/08/11 01:53:05;;;;;;;;;;;17.00;62.30;;;;;;5116685;28;19916;-82
2022/08/11 01:55:37;;;;;;;;;;;17.40;60.30;;;;;;5116204;28;19917;-82
2022/08/11 01:58:07;;;;;;;;;;;18.00;58.70;;;;;;5132383;28;19930;-82
2022/08/11 02:00:43;;;;;;;;;;;18.50;57.30;;;;;;5130868;28;19918;-82
2022/08/11 02:03:14;;;;;;;;;;;18.70;56.70;;;;;;5136069;28;19912;-81
2022/08/11 02:05:43;;;;;;;;;;;18.80;56.40;;;;;;5135194;28;19908;-81
2022/08/11 02:08:13;;;;;;;;;;;18.80;56.00;;;;;;5117188;28;19916;-81
2022/08/11 02:13:41;;;;;;;;;;;18.80;56.00;;;;;;5110482;28;19919;-82
2022/08/11 02:16:10;;;;;;;;;;;18.80;56.00;;;;;;5116111;28;19923;-82
2022/08/11 02:24:16;;;;;;;;;;;18.60;56.40;;;;;;5114293;28;20269;-82
2022/08/11 02:26:42;;;;;;;;;;;18.50;56.60;;;;;;5114685;28;20352;-82
2022/08/11 02:29:14;;;;;;;;;;;18.40;56.80;;;;;;5115314;28;19957;-83
2022/08/11 02:34:41;;;;;;;;;;;18.20;57.40;;;;;;5112970;28;19912;-82
2022/08/11 02:37:15;;;;;;;;;;;18.20;57.60;;;;;;5096588;28;19916;-81
2022/08/11 02:39:56;;;;;;;;;;;18.00;58.00;;;;;;5114302;28;19912;-81
2022/08/11 02:42:28;;;;;;;;;;;17.90;59.40;;;;;;5114043;28;19915;-82
2022/08/11 02:45:04;;;;;;;;;;;17.70;59.90;;;;;;5096298;28;19919;-81
2022/08/11 02:49:52;;;;;;;;;;;17.50;60.70;;;;;;5114517;28;20276;-82
2022/08/11 02:51:01;;;;;;;;;;;17.40;61.70;;;;;;5114084;28;19912;-82
2022/08/11 02:53:35;;;;;;;;;;;17.20;61.90;;;;;;5049192;28;19913;-81
2022/08/11 02:56:15;;;;;;;;;;;17.10;62.70;;;;;;5098751;28;19912;-82
2022/08/11 03:02:02;;;;;;;;;;;16.90;64.70;;;;;;5113574;28;19912;-83
2022/08/11 03:04:50;;;;;;;;;;;16.80;64.90;;;;;;5093861;28;19927;-82
2022/08/11 03:07:36;;;;;;;;;;;16.70;65.70;;;;;;5100244;28;19916;-82
2022/08/11 03:10:05;;;;;;;;;;;16.50;66.30;;;;;;5085360;28;19919;-82
2022/08/11 03:18:45;;;;;;;;;;;16.20;67.40;;;;;;5113163;28;19923;-82
2022/08/11 03:21:14;;;;;;;;;;;16.10;68.50;;;;;;5113915;28;19912;-82
2022/08/11 03:23:46;;;;;;;;;;;16.00;68.70;;;;;;5111742;28;19912;-82
2022/08/11 03:26:23;;;;;;;;;;;16.00;69.50;;;;;;5113873;28;19923;-82
2022/08/11 03:29:07;;;;;;;;;;;15.90;70.60;;;;;;5113450;28;19930;-81
2022/08/11 03:31:35;;;;;;;;;;;15.80;71.70;;;;;;5112285;28;20399;-82
2022/08/11 03:34:03;;;;;;;;;;;15.70;72.20;;;;;;5111570;28;19915;-82
2022/08/11 03:36:47;;;;;;;;;;;15.60;73.20;;;;;;5094482;28;19923;-83
2022/08/11 03:39:32;;;;;;;;;;;15.50;74.00;;;;;;5114109;28;19919;-82
2022/08/11 03:42:16;;;;;;;;;;;15.40;74.70;;;;;;5113559;28;19911;-82
2022/08/11 03:44:47;;;;;;;;;;;15.30;75.50;;;;;;5112015;28;19924;-81
2022/08/11 03:47:45;;;;;;;;;;;15.20;76.30;;;;;;5113690;28;19916;-81
2022/08/11 03:50:22;;;;;;;;;;;15.20;76.90;;;;;;5068099;28;19919;-80
2022/08/11 03:53:06;;;;;;;;;;;15.10;78.10;;;;;;5110956;28;20104;-81
2022/08/11 03:55:38;;;;;;;;;;;15.00;78.40;;;;;;5112314;28;19922;-81
2022/08/11 03:58:23;;;;;;;;;;;14.90;79.10;;;;;;5113508;28;19915;-82
2022/08/11 04:01:08;;;;;;;;;;;14.90;79.90;;;;;;5112384;28;19915;-82
2022/08/11 04:03:34;;;;;;;;;;;14.90;79.80;;;;;;5111032;28;19926;-82
2022/08/11 04:06:03;;;;;;;;;;;14.90;80.00;;;;;;5113181;28;19920;-81
2022/08/11 04:08:47;;;;;;;;;;;15.00;81.20;;;;;;5112721;28;19918;-83
2022/08/11 04:11:33;;;;;;;;;;;15.00;80.90;;;;;;5113268;28;19912;-81
2022/08/11 04:17:06;;;;;;;;;;;14.90;81.90;;;;;;5112675;28;20280;-81
2022/08/11 04:19:49;;;;;;;;;;;14.90;82.90;;;;;;5109535;28;19922;-82
2022/08/11 04:22:22;;;;;;;;;;;14.80;83.60;;;;;;5112151;28;19916;-82
2022/08/11 04:25:14;;;;;;;;;;;14.80;84.20;;;;;;5094288;28;20006;-81
2022/08/11 04:27:53;;;;;;;;;;;14.80;84.90;;;;;;5112285;28;19927;-81
2022/08/11 04:30:19;;;;;;;;;;;14.80;85.60;;;;;;5112824;28;19911;-81
2022/08/11 04:32:57;;;;;;;;;;;14.80;86.40;;;;;;5110859;28;20322;-81
2022/08/11 04:35:23;;;;;;;;;;;14.80;86.80;;;;;;5106352;28;19912;-81
2022/08/11 04:38:08;;;;;;;;;;;14.90;87.10;;;;;;5111793;28;20476;-81
2022/08/11 04:40:34;;;;;;;;;;;14.90;86.80;;;;;;5112302;28;19912;-81
2022/08/11 04:43:22;;;;;;;;;;;15.00;87.60;;;;;;5111244;28;19912;-81
2022/08/11 04:45:51;;;;;;;;;;;15.10;87.00;;;;;;5106400;28;19922;-81
2022/08/11 05:03:10;;;;;;;;;;;17.30;75.80;;;;;;5109725;28;20489;-81
2022/08/11 05:05:59;;;;;;;;;;;18.10;71.40;;;;;;5110870;28;19923;-82
2022/08/11 05:08:37;;;;;;;;;;;18.70;68.20;;;;;;5112351;28;19920;-81
2022/08/11 05:11:06;;;;;;;;;;;19.60;66.20;;;;;;5112450;28;19919;-82
2022/08/11 05:36:36;;;;;;;;;;;22.20;55.20;;;;;;5075943;28;20227;-84
2022/08/11 05:58:31;;;;;;;;;;;22.40;54.20;;;;;;5070134;28;19921;-82
2022/08/11 06:00:58;;;;;;;;;;;22.40;54.00;;;;;;5069790;28;19908;-81
2022/08/11 06:03:26;;;;;;;;;;;22.10;54.50;;;;;;5077327;28;20327;-80
2022/08/11 06:05:53;;;;;;;;;;;22.20;54.80;;;;;;5075485;28;20400;-81
2022/08/11 06:08:26;;;;;;;;;;;22.70;53.70;;;;;;5076884;28;19913;-82
2022/08/11 06:10:58;;;;;;;;;;;22.80;53.60;;;;;;5113674;22;19932;-80
2022/08/11 06:13:24;;;;;;;;;;;22.90;53.00;;;;;;5057776;28;19911;-81
2022/08/11 06:15:51;;;;;;;;;;;23.40;53.30;;;;;;5045315;28;20281;-81
2022/08/11 06:18:17;;;;;;;;;;;23.60;51.60;;;;;;5028837;28;19920;-81
2022/08/11 06:20:48;;;;;;;;;;;24.00;51.50;;;;;;5032847;28;19913;-81
2022/08/11 06:23:17;;;;;;;;;;;23.90;50.80;;;;;;5033099;28;19935;-81
2022/08/11 06:25:44;;;;;;;;;;;24.60;51.50;;;;;;5032492;28;19917;-81
2022/08/11 06:28:10;;;;;;;;;;;24.80;50.90;;;;;;5027944;28;20394;-81
2022/08/11 06:30:40;;;;;;;;;;;24.80;49.60;;;;;;5034242;28;20007;-82
2022/08/11 06:33:12;;;;;;;;;;;25.40;50.10;;;;;;5033187;28;19920;-82
2022/08/11 06:35:47;;;;;;;;;;;26.00;47.90;;;;;;5013180;28;20414;-81
2022/08/11 06:38:21;;;;;;;;;;;26.10;48.60;;;;;;5024830;28;19913;-82
2022/08/11 06:43:58;;;;;;;;;;;26.70;47.50;;;;;;5033327;28;19913;-82
2022/08/11 06:46:29;;;;;;;;;;;26.80;46.80;;;;;;5032224;28;19917;-82
2022/08/11 06:48:56;;;;;;;;;;;27.50;46.70;;;;;;5033177;28;19924;-82
2022/08/11 06:51:22;;;;;;;;;;;29.10;44.60;;;;;;5034034;28;19936;-82
2022/08/11 06:53:56;;;;;;;;;;;29.70;42.60;;;;;;5033482;28;19916;-82
2022/08/11 07:02:12;;;;;;;;;;;28.60;43.50;;;;;;5017277;28;19965;-82
2022/08/11 07:04:48;;;;;;;;;;;29.20;42.50;;;;;;5015509;28;19924;-82
2022/08/11 07:15:42;;;;;;;;;;;28.60;42.40;;;;;;5026169;28;20341;-81
2022/08/11 07:29:25;;;;;;;;;;;28.80;41.80;;;;;;5020793;28;19917;-82
2022/08/11 07:31:52;;;;;;;;;;;28.90;40.80;;;;;;5039554;28;19916;-81
2022/08/11 07:34:30;;;;;;;;;;;30.00;41.80;;;;;;5039303;28;19917;-82
2022/08/11 07:36:58;;;;;;;;;;;31.20;39.70;;;;;;5038452;28;19913;-82
2022/08/11 07:39:34;;;;;;;;;;;30.40;40.00;;;;;;5039309;28;19914;-81
2022/08/11 07:42:04;;;;;;;;;;;29.60;40.80;;;;;;5023653;28;19921;-81
2022/08/11 07:44:30;;;;;;;;;;;29.30;40.90;;;;;;5035753;28;19913;-82
2022/08/11 07:52:32;;;;;;;;;;;28.90;40.80;;;;;;5015135;28;19924;-81
2022/08/11 07:54:59;;;;;;;;;;;30.00;40.80;;;;;;5012097;28;19917;-81
2022/08/11 08:19:26;;;;;;;;;;;31.70;38.70;;;;;;5026146;28;19914;-81
2022/08/11 08:21:52;;;;;;;;;;;30.60;39.50;;;;;;5013420;28;19913;-80
2022/08/11 08:24:21;;;;;;;;;;;29.80;39.90;;;;;;5013349;28;19913;-79
2022/08/11 08:26:57;;;;;;;;;;;30.20;39.70;;;;;;5018862;28;19921;-80
2022/08/11 08:32:10;;;;;;;;;;;30.70;39.20;;;;;;5022102;28;20334;-82
2022/08/11 08:34:36;;;;;;;;;;;30.50;39.40;;;;;;5012161;28;19921;-81
2022/08/11 08:37:04;;;;;;;;;;;30.50;39.30;;;;;;5021800;28;19917;-81
2022/08/11 08:39:36;;;;;;;;;;;31.40;39.20;;;;;;5048138;28;19913;-80
2022/08/11 08:42:10;;;;;;;;;;;30.50;39.30;;;;;;5032430;28;19921;-82
2022/08/11 08:44:39;;;;;;;;;;;30.00;39.50;;;;;;5031459;28;19920;-82
2022/08/11 08:47:06;;;;;;;;;;;30.20;39.70;;;;;;5030538;28;19928;-82
2022/08/11 08:49:36;;;;;;;;;;;29.70;39.50;;;;;;5021034;28;19920;-80
2022/08/11 08:52:04;;;;;;;;;;;29.80;39.60;;;;;;5012390;28;19989;-79
2022/08/11 08:54:35;;;;;;;;;;;29.60;39.30;;;;;;5025722;28;19913;-79
2022/08/11 08:57:04;;;;;;;;;;;30.00;39.20;;;;;;5028556;28;19920;-81
2022/08/11 08:59:31;;;;;;;;;;;29.90;39.20;;;;;;5030431;28;19920;-83
2022/08/11 09:01:59;;;;;;;;;;;30.30;38.80;;;;;;5031183;28;20227;-80
2022/08/11 09:04:25;;;;;;;;;;;30.20;39.10;;;;;;5026228;28;19932;-80
2022/08/11 09:06:52;;;;;;;;;;;30.30;38.50;;;;;;5010985;28;19918;-82
2022/08/11 09:09:20;;;;;;;;;;;30.30;39.60;;;;;;5013076;28;19933;-82
2022/08/11 09:11:49;;;;;;;;;;;31.50;38.80;;;;;;5011957;28;20381;-81
2022/08/11 09:14:16;;;;;;;;;;;30.60;38.30;;;;;;5023038;28;19914;-83
2022/08/11 09:16:43;;;;;;;;;;;29.80;38.90;;;;;;5030283;28;19914;-79
2022/08/11 09:19:12;;;;;;;;;;;28.80;39.60;;;;;;5031595;28;19913;-77
2022/08/11 09:21:42;;;;;;;;;;;28.70;40.10;;;;;;5015635;28;19918;-81
2022/08/11 09:26:58;;;;;;;;;;;27.80;41.10;;;;;;5030006;28;19917;-81
2022/08/11 09:29:28;;;;;;;;;;;27.20;41.60;;;;;;5025484;28;19917;-82
2022/08/11 09:31:54;;;;;;;;;;;28.00;41.40;;;;;;5031703;28;19913;-79
2022/08/11 09:34:21;;;;;;;;;;;29.90;40.10;;;;;;5024615;28;20362;-79
2022/08/11 09:42:21;;;;;;;;;;;31.50;38.50;;;;;;5014980;28;20362;-79
2022/08/11 09:44:48;;;;;;;;;;;31.30;38.30;;;;;;5011325;28;20279;-80
2022/08/11 09:47:17;;;;;;;;;;;30.40;38.10;;;;;;5011779;28;19925;-81
2022/08/11 09:49:44;;;;;;;;;;;28.70;39.50;;;;;;5012742;28;20266;-82
2022/08/11 09:52:12;;;;;;;;;;;27.90;40.50;;;;;;5027984;28;19916;-82
2022/08/11 09:54:40;;;;;;;;;;;29.80;38.50;;;;;;5029358;28;20465;-83
2022/08/11 09:59:51;;;;;;;;;;;29.80;37.50;;;;;;5013105;28;19921;-82
2022/08/11 10:02:22;;;;;;;;;;;29.40;37.20;;;;;;5012561;28;19909;-78
2022/08/11 10:04:50;;;;;;;;;;;29.60;37.10;;;;;;5011414;28;19923;-79
2022/08/11 10:07:19;;;;;;;;;;;29.50;37.40;;;;;;5014456;28;19929;-81
2022/08/11 10:09:49;;;;;;;;;;;29.60;37.00;;;;;;5033915;28;20271;-80
2022/08/11 10:12:25;;;;;;;;;;;29.90;36.90;;;;;;5034183;28;19925;-79
2022/08/11 10:18:40;;;;;;;;;;;28.80;37.30;;;;;;5035506;28;19913;-82
2022/08/11 10:20:29;;;;;;;;;;;28.90;37.40;;;;;;5028676;28;19914;-80
2022/08/11 10:28:25;;;;;;;;;;;28.50;37.90;;;;;;5019433;28;19925;-82
2022/08/11 10:36:21;;;;;;;;;;;28.90;37.10;;;;;;5027786;28;19980;-78
2022/08/11 10:38:50;;;;;;;;;;;29.10;37.10;;;;;;5035564;28;20024;-78
2022/08/11 10:44:01;;;;;;;;;;;29.10;37.90;;;;;;5037062;28;19914;-82
2022/08/11 10:49:12;;;;;;;;;;;29.10;36.90;;;;;;5033691;28;20377;-84
2022/08/11 10:59:53;;;;;;;;;;;28.80;36.50;;;;;;5014364;28;19913;-83
2022/08/11 11:02:20;;;;;;;;;;;28.70;36.90;;;;;;5014915;28;19925;-79
2022/08/11 11:04:55;;;;;;;;;;;28.40;37.00;;;;;;5031418;28;19920;-80
2022/08/11 11:07:23;;;;;;;;;;;28.60;36.80;;;;;;5032776;28;19966;-81
2022/08/11 11:09:52;;;;;;;;;;;28.60;37.00;;;;;;5048970;28;19917;-80
2022/08/11 11:17:55;;;;;;;;;;;28.90;36.60;;;;;;5031027;28;19913;-82
2022/08/11 11:20:32;;;;;;;;;;;28.90;35.90;;;;;;5033777;28;19913;-80
2022/08/11 11:23:02;;;;;;;;;;;28.70;36.40;;;;;;5022425;28;19921;-85
2022/08/11 11:25:33;;;;;;;;;;;28.70;36.80;;;;;;5012789;28;20308;-79
2022/08/11 11:28:27;;;;;;;;;;;28.90;36.20;;;;;;5014169;28;19918;-83
2022/08/11 11:31:05;;;;;;;;;;;28.40;36.50;;;;;;5020364;28;19914;-84
2022/08/11 11:33:50;;;;;;;;;;;28.80;36.50;;;;;;5031081;28;19920;-81
2022/08/11 11:36:27;;;;;;;;;;;29.10;37.00;;;;;;5030583;28;19913;-81
2022/08/11 11:38:57;;;;;;;;;;;29.20;36.60;;;;;;5020074;28;19920;-80
2022/08/11 11:41:24;;;;;;;;;;;29.20;37.20;;;;;;5019037;28;19917;-78
2022/08/11 11:43:54;;;;;;;;;;;29.50;35.90;;;;;;5013927;28;19920;-81
2022/08/11 11:46:21;;;;;;;;;;;29.10;35.80;;;;;;5031173;28;19969;-78
2022/08/11 11:48:48;;;;;;;;;;;28.90;35.80;;;;;;5033479;28;20387;-80
2022/08/11 11:51:14;;;;;;;;;;;28.70;35.80;;;;;;5032844;28;20250;-79
2022/08/11 11:53:44;;;;;;;;;;;29.10;36.00;;;;;;5027272;28;19932;-80
2022/08/11 11:56:11;;;;;;;;;;;29.10;36.10;;;;;;5029409;28;19913;-79
2022/08/11 12:01:24;;;;;;;;;;;29.00;36.50;;;;;;5018387;28;19913;-80
2022/08/11 12:03:52;;;;;;;;;;;29.20;36.10;;;;;;5014120;28;19913;-80
2022/08/11 12:06:20;;;;;;;;;;;29.30;36.20;;;;;;5012223;28;19921;-80
2022/08/11 12:08:47;;;;;;;;;;;28.90;35.90;;;;;;5015110;28;19918;-82
2022/08/11 12:14:02;;;;;;;;;;;29.30;36.00;;;;;;5013164;28;20288;-83
2022/08/11 12:16:28;;;;;;;;;;;29.20;36.10;;;;;;5012300;28;20130;-81
2022/08/11 12:18:56;;;;;;;;;;;29.40;36.30;;;;;;5013907;28;19913;-82
2022/08/11 12:21:23;;;;;;;;;;;29.60;36.40;;;;;;5014129;28;19914;-81
2022/08/11 12:29:05;;;;;;;;;;;29.60;36.40;;;;;;5012642;28;20278;-83
2022/08/11 12:31:32;;;;;;;;;;;29.70;36.00;;;;;;5013819;28;19936;-82
2022/08/11 12:34:02;;;;;;;;;;;30.00;36.10;;;;;;5011694;28;19916;-79
2022/08/11 12:36:32;;;;;;;;;;;29.80;35.90;;;;;;5011967;28;19917;-81
2022/08/11 12:38:58;;;;;;;;;;;29.90;36.00;;;;;;5011199;28;19920;-76
2022/08/11 12:46:58;;;;;;;;;;;29.50;36.20;;;;;;5021756;28;20387;-82
2022/08/11 12:52:13;;;;;;;;;;;29.60;36.00;;;;;;5012661;28;19913;-84
2022/08/11 12:54:49;;;;;;;;;;;29.60;35.70;;;;;;5013441;28;19913;-80
2022/08/11 13:05:40;;;;;;;;;;;30.30;35.00;;;;;;5030595;28;19917;-82
2022/08/11 13:08:06;;;;;;;;;;;30.10;35.30;;;;;;5029690;28;19917;-82
2022/08/11 13:13:19;;;;;;;;;;;30.20;35.20;;;;;;5031490;28;19925;-82
2022/08/11 13:15:47;;;;;;;;;;;29.90;35.00;;;;;;5030297;28;19920;-80
2022/08/11 13:18:15;;;;;;;;;;;30.20;34.80;;;;;;5031095;28;19913;-81
2022/08/11 13:20:43;;;;;;;;;;;30.10;34.80;;;;;;5017706;28;19914;-80
2022/08/11 13:23:12;;;;;;;;;;;29.90;34.70;;;;;;5012260;28;20009;-80
2022/08/11 13:25:38;;;;;;;;;;;29.70;34.70;;;;;;5039426;28;20355;-82
2022/08/11 13:28:04;;;;;;;;;;;29.60;35.20;;;;;;5031302;28;20007;-84
2022/08/11 13:33:17;;;;;;;;;;;30.30;35.40;;;;;;5032202;28;19902;-82
2022/08/11 13:35:48;;;;;;;;;;;30.70;34.60;;;;;;5033034;28;19920;-81
2022/08/11 13:38:15;;;;;;;;;;;30.70;34.30;;;;;;5036932;28;19913;-79
2022/08/11 13:40:41;;;;;;;;;;;30.60;34.60;;;;;;5019428;28;20314;-80
2022/08/11 13:43:08;;;;;;;;;;;30.80;34.60;;;;;;5025928;28;19932;-81
2022/08/11 13:45:35;;;;;;;;;;;30.70;34.50;;;;;;5019380;28;19920;-81
2022/08/11 13:48:04;;;;;;;;;;;30.60;34.70;;;;;;5045739;28;19961;-82
2022/08/11 13:53:17;;;;;;;;;;;30.20;34.50;;;;;;5035231;28;20496;-80
2022/08/11 13:55:43;;;;;;;;;;;30.40;34.70;;;;;;5034087;28;20274;-80
2022/08/11 13:58:09;;;;;;;;;;;30.50;34.20;;;;;;5025549;28;19913;-82
2022/08/11 14:00:36;;;;;;;;;;;30.10;34.20;;;;;;5026764;28;19920;-84
2022/08/11 14:03:04;;;;;;;;;;;30.10;34.50;;;;;;5034652;28;19921;-81
2022/08/11 14:05:32;;;;;;;;;;;30.50;36.00;;;;;;5033803;28;19917;-83
2022/08/11 14:08:00;;;;;;;;;;;30.80;34.10;;;;;;5033777;28;19928;-83
2022/08/11 14:10:28;;;;;;;;;;;30.90;34.20;;;;;;5035356;28;20282;-81
2022/08/11 14:15:43;;;;;;;;;;;30.60;33.90;;;;;;5034089;28;19913;-79
2022/08/11 14:18:16;;;;;;;;;;;30.60;34.00;;;;;;5034415;28;19923;-82
2022/08/11 14:23:30;;;;;;;;;;;30.80;33.70;;;;;;5030220;28;19920;-81
2022/08/11 14:28:42;;;;;;;;;;;30.40;33.80;;;;;;5033321;28;19933;-81
2022/08/11 14:31:08;;;;;;;;;;;30.30;34.60;;;;;;5025729;28;19913;-84
2022/08/11 14:33:34;;;;;;;;;;;30.70;33.70;;;;;;5034613;28;19939;-85
2022/08/11 14:36:02;;;;;;;;;;;30.80;34.20;;;;;;5033120;28;20354;-81
2022/08/11 14:38:28;;;;;;;;;;;30.60;33.70;;;;;;5033172;28;19935;-80
2022/08/11 14:49:09;;;;;;;;;;;30.80;33.70;;;;;;5033547;28;20290;-80
2022/08/11 14:51:35;;;;;;;;;;;30.90;32.80;;;;;;5033841;28;19916;-82
2022/08/11 14:56:46;;;;;;;;;;;30.60;33.40;;;;;;5033079;28;19917;-83
2022/08/11 14:59:12;;;;;;;;;;;30.50;33.50;;;;;;5033363;28;20393;-79
2022/08/11 15:04:23;;;;;;;;;;;31.10;33.40;;;;;;5033015;28;19984;-80
2022/08/11 15:06:50;;;;;;;;;;;31.00;33.30;;;;;;5014511;28;19932;-81
2022/08/11 15:09:16;;;;;;;;;;;31.10;33.00;;;;;;5014745;28;19910;-84
2022/08/11 15:17:12;;;;;;;;;;;31.10;33.00;;;;;;5025761;28;19974;-81
2022/08/11 15:24:18;;;;;;;;;;;30.90;32.80;;;;;;5032419;28;19909;-80
2022/08/11 15:25:10;;;;;;;;;;;31.00;33.20;;;;;;5021947;28;19921;-81
2022/08/11 15:38:58;;;;;;;;;;;30.70;32.80;;;;;;4994029;28;19913;-74
2022/08/11 15:47:00;;;;;;;;;;;30.50;33.10;;;;;;5027368;28;19924;-73
2022/08/11 15:49:35;;;;;;;;;;;30.60;33.10;;;;;;5039646;28;19920;-73
2022/08/11 15:52:04;;;;;;;;;;;30.90;33.00;;;;;;5013106;28;19917;-75
2022/08/11 15:54:31;;;;;;;;;;;30.70;32.90;;;;;;5022943;28;19925;-76
2022/08/11 15:56:59;;;;;;;;;;;30.50;33.10;;;;;;5031148;28;19921;-73
2022/08/11 16:04:54;;;;;;;;;;;30.60;33.10;;;;;;5029384;28;19924;-76
2022/08/11 16:07:25;;;;;;;;;;;30.50;33.20;;;;;;5012955;28;19922;-74
2022/08/11 16:09:58;;;;;;;;;;;30.50;33.20;;;;;;5013629;28;19917;-74
2022/08/11 16:12:27;;;;;;;;;;;30.60;33.10;;;;;;5024589;28;19925;-74
2022/08/11 16:17:41;;;;;;;;;;;30.70;33.00;;;;;;5027723;28;20370;-74
2022/08/11 16:20:08;;;;;;;;;;;30.60;33.40;;;;;;5031393;28;19913;-74
2022/08/11 16:22:38;;;;;;;;;;;30.70;33.30;;;;;;5018379;28;19921;-75
2022/08/11 16:25:06;;;;;;;;;;;30.60;33.40;;;;;;5009936;28;19913;-74
2022/08/11 16:27:35;;;;;;;;;;;30.60;33.30;;;;;;5014092;28;19913;-73
2022/08/11 16:30:01;;;;;;;;;;;30.60;33.40;;;;;;5031991;28;19917;-74
2022/08/11 16:32:27;;;;;;;;;;;30.70;33.40;;;;;;5024752;28;19913;-74
2022/08/11 16:40:28;;;;;;;;;;;30.30;33.40;;;;;;5031195;28;19913;-73
2022/08/11 16:48:34;;;;;;;;;;;30.10;33.60;;;;;;5009443;28;19921;-75
2022/08/11 16:51:00;;;;;;;;;;;30.10;33.30;;;;;;5031872;28;19917;-75
2022/08/11 16:53:27;;;;;;;;;;;30.00;33.40;;;;;;5021737;28;20389;-73
2022/08/11 16:55:54;;;;;;;;;;;30.00;33.30;;;;;;5011106;28;20363;-74
2022/08/11 17:01:07;;;;;;;;;;;29.90;33.30;;;;;;5012020;28;20282;-77
2022/08/11 17:14:40;;;;;;;;;;;29.80;33.20;;;;;;5030425;28;19913;-76
2022/08/11 17:17:11;;;;;;;;;;;29.90;33.30;;;;;;5031571;28;19913;-79
2022/08/11 17:19:40;;;;;;;;;;;29.80;33.00;;;;;;5016403;28;19914;-74
2022/08/11 17:24:51;;;;;;;;;;;29.70;33.10;;;;;;5033640;28;19920;-75
2022/08/11 17:27:18;;;;;;;;;;;29.70;33.20;;;;;;5033846;28;19913;-76
2022/08/11 17:29:47;;;;;;;;;;;29.60;33.10;;;;;;5035174;28;19924;-75
2022/08/11 17:37:53;;;;;;;;;;;29.60;33.30;;;;;;5034757;28;19920;-74
2022/08/11 17:40:23;;;;;;;;;;;29.60;33.20;;;;;;5034146;28;19913;-76
2022/08/11 17:48:26;;;;;;;;;;;29.40;33.40;;;;;;5028095;28;19917;-75
2022/08/11 17:50:54;;;;;;;;;;;29.40;33.40;;;;;;5021330;28;19917;-76
2022/08/11 18:01:37;;;;;;;;;;;29.20;33.50;;;;;;5021441;28;20374;-75
2022/08/11 18:04:04;;;;;;;;;;;29.20;33.60;;;;;;5022131;28;20255;-75
2022/08/11 18:06:31;;;;;;;;;;;29.10;34.10;;;;;;5019277;28;20459;-75
